createdAt,value
2018-07-21T00:01:12.893Z,7.13
2018-07-21T00:03:41.050Z,7.30
2018-07-21T00:06:08.750Z,6.97
2018-07-21T00:08:36.331Z,6.97
2018-07-21T00:11:04.959Z,6.90
2018-07-21T00:13:32.655Z,6.90
2018-07-21T00:16:00.382Z,7.10
2018-07-21T00:18:28.108Z,7.33
2018-07-21T00:20:55.641Z,7.43
2018-07-21T00:23:23.310Z,5.63
2018-07-21T00:25:50.944Z,7.23
2018-07-21T00:28:19.016Z,7.20
2018-07-21T00:30:46.658Z,7.90
2018-07-21T00:33:14.889Z,6.87
2018-07-21T00:35:43.310Z,7.00
2018-07-21T00:38:10.827Z,8.00
2018-07-21T00:40:38.746Z,7.67
2018-07-21T00:43:06.616Z,7.07
2018-07-21T00:45:35.351Z,6.97
2018-07-21T00:48:02.888Z,7.43
2018-07-21T00:50:30.503Z,7.17
2018-07-21T00:52:58.125Z,7.00
2018-07-21T00:55:26.388Z,7.80
2018-07-21T00:57:53.966Z,7.23
2018-07-21T01:00:21.895Z,7.30
2018-07-21T01:02:50.639Z,7.30
2018-07-21T01:05:18.355Z,6.33
2018-07-21T01:07:46.792Z,7.43
2018-07-21T01:10:15.343Z,7.27
2018-07-21T01:12:43.780Z,7.63
2018-07-21T01:15:11.970Z,6.90
2018-07-21T01:17:39.597Z,7.90
2018-07-21T01:20:08.079Z,7.60
2018-07-21T01:22:36.357Z,7.53
2018-07-21T01:25:05.450Z,7.00
2018-07-21T01:27:33.032Z,7.47
2018-07-21T01:30:00.632Z,6.93
2018-07-21T01:32:28.263Z,7.10
2018-07-21T01:34:56.342Z,7.20
2018-07-21T01:37:24.423Z,7.23
2018-07-21T01:39:52.538Z,6.40
2018-07-21T01:42:20.199Z,7.53
2018-07-21T01:44:47.880Z,7.40
2018-07-21T01:47:16.119Z,7.17
2018-07-21T01:49:43.689Z,7.30
2018-07-21T01:52:11.352Z,7.60
2018-07-21T01:54:38.891Z,6.53
2018-07-21T01:57:07.035Z,6.90
2018-07-21T01:59:34.720Z,6.70
2018-07-21T02:02:02.356Z,7.50
2018-07-21T02:04:29.899Z,7.80
2018-07-21T02:06:57.471Z,7.33
2018-07-21T02:09:25.019Z,7.20
2018-07-21T02:11:52.679Z,8.10
2018-07-21T02:14:20.237Z,7.93
2018-07-21T02:16:47.792Z,7.63
2018-07-21T02:19:15.359Z,7.67
2018-07-21T02:21:43.875Z,6.73
2018-07-21T02:24:11.469Z,7.23
2018-07-21T02:26:39.109Z,7.10
2018-07-21T02:29:06.796Z,7.60
2018-07-21T02:31:34.299Z,8.37
2018-07-21T02:34:01.936Z,7.63
2018-07-21T02:36:29.511Z,7.83
2018-07-21T02:38:57.120Z,8.30
2018-07-21T02:41:24.722Z,6.73
2018-07-21T02:43:52.358Z,7.40
2018-07-21T02:46:20.773Z,7.50
2018-07-21T02:48:49.721Z,7.37
2018-07-21T02:51:18.234Z,6.63
2018-07-21T02:53:45.803Z,7.47
2018-07-21T02:56:13.379Z,7.13
2018-07-21T02:58:40.981Z,7.90
2018-07-21T03:01:09.285Z,7.73
2018-07-21T03:03:36.830Z,9.43
2018-07-21T03:06:04.574Z,7.97
2018-07-21T03:08:32.790Z,8.17
2018-07-21T03:11:01.321Z,8.33
2018-07-21T03:13:28.755Z,9.80
2018-07-21T03:15:56.924Z,9.90
2018-07-21T03:18:24.431Z,10.33
2018-07-21T03:20:51.869Z,8.67
2018-07-21T03:23:19.391Z,9.13
2018-07-21T03:25:46.872Z,9.23
2018-07-21T03:28:14.457Z,8.60
2018-07-21T03:30:42.540Z,8.50
2018-07-21T03:33:10.021Z,8.80
2018-07-21T03:35:37.704Z,8.13
2018-07-21T03:38:05.968Z,7.30
2018-07-21T03:40:34.133Z,8.70
2018-07-21T03:43:01.674Z,8.13
2018-07-21T03:45:29.288Z,6.80
2018-07-21T03:47:56.918Z,8.13
2018-07-21T03:50:24.577Z,8.20
2018-07-21T03:52:52.148Z,8.10
2018-07-21T03:55:20.310Z,8.47
2018-07-21T03:57:48.422Z,8.60
2018-07-21T04:00:16.481Z,8.53
2018-07-21T04:02:44.081Z,9.70
2018-07-21T04:05:13.372Z,8.70
2018-07-21T04:07:41.152Z,9.63
2018-07-21T04:10:08.845Z,9.10
2018-07-21T04:12:36.571Z,8.50
2018-07-21T04:15:05.148Z,9.40
2018-07-21T04:17:32.725Z,8.50
2018-07-21T04:20:00.882Z,8.70
2018-07-21T04:22:28.469Z,9.07
2018-07-21T04:24:56.435Z,7.90
2018-07-21T04:27:24.963Z,7.73
2018-07-21T04:29:52.960Z,6.80
2018-07-21T04:32:20.591Z,8.70
2018-07-21T04:34:48.181Z,7.30
2018-07-21T04:37:15.840Z,6.93
2018-07-21T04:39:43.555Z,6.80
2018-07-21T04:42:11.589Z,7.33
2018-07-21T04:44:39.137Z,7.97
2018-07-21T04:47:07.360Z,7.47
2018-07-21T04:49:34.823Z,7.97
2018-07-21T04:52:02.560Z,7.60
2018-07-21T04:54:30.147Z,7.10
2018-07-21T04:56:57.657Z,6.23
2018-07-21T04:59:25.155Z,6.30
2018-07-21T05:01:52.736Z,7.93
2018-07-21T05:04:20.381Z,7.00
2018-07-21T05:06:48.440Z,6.70
2018-07-21T05:09:15.925Z,7.40
2018-07-21T05:11:44.405Z,6.77
2018-07-21T05:14:11.921Z,6.47
2018-07-21T05:16:39.489Z,5.83
2018-07-21T05:19:07.114Z,5.67
2018-07-21T05:21:35.712Z,5.90
2018-07-21T05:24:03.567Z,5.80
2018-07-21T05:26:31.334Z,5.57
2018-07-21T05:28:59.070Z,5.63
2018-07-21T05:31:26.601Z,5.37
2018-07-21T05:33:54.309Z,5.70
2018-07-21T05:36:22.142Z,6.03
2018-07-21T05:38:50.909Z,5.27
2018-07-21T05:41:18.485Z,4.27
2018-07-21T05:43:47.128Z,4.53
2018-07-21T05:46:14.893Z,5.17
2018-07-21T05:48:42.397Z,4.97
2018-07-21T05:51:10.665Z,4.10
2018-07-21T05:53:39.269Z,5.07
2018-07-21T05:56:06.759Z,4.30
2018-07-21T05:58:36.543Z,5.33
2018-07-21T06:01:04.477Z,4.20
2018-07-21T06:03:31.980Z,4.00
2018-07-21T06:05:59.605Z,5.03
2018-07-21T06:08:27.189Z,3.83
2018-07-21T06:10:54.850Z,4.10
2018-07-21T06:13:22.978Z,5.50
2018-07-21T06:15:51.001Z,4.90
2018-07-21T06:18:19.302Z,4.13
2018-07-21T06:20:46.980Z,4.03
2018-07-21T06:23:15.684Z,4.27
2018-07-21T06:25:44.204Z,4.63
2018-07-21T06:28:11.850Z,3.80
2018-07-21T06:30:39.239Z,4.40
2018-07-21T06:33:07.009Z,4.53
2018-07-21T06:35:34.845Z,3.30
2018-07-21T06:38:02.379Z,4.00
2018-07-21T06:40:30.553Z,3.80
2018-07-21T06:42:58.068Z,6.60
2018-07-21T06:45:25.638Z,4.37
2018-07-21T06:47:53.435Z,4.40
2018-07-21T06:50:20.828Z,4.47
2018-07-21T06:52:48.357Z,4.40
2018-07-21T06:55:15.938Z,4.90
2018-07-21T06:57:44.489Z,4.40
2018-07-21T07:00:12.262Z,4.10
2018-07-21T07:02:40.675Z,4.27
2018-07-21T07:05:08.802Z,5.20
2018-07-21T07:07:39.016Z,6.90
2018-07-21T07:10:07.054Z,4.57
2018-07-21T07:12:35.532Z,5.30
2018-07-21T07:15:03.732Z,4.03
2018-07-21T07:17:31.375Z,10.47
2018-07-21T07:19:59.582Z,6.80
2018-07-21T07:22:27.258Z,5.27
2018-07-21T07:24:54.879Z,4.53
2018-07-21T07:27:23.674Z,4.57
2018-07-21T07:29:52.037Z,4.40
2018-07-21T07:32:20.056Z,9.80
2018-07-21T07:34:47.540Z,4.20
2018-07-21T07:37:15.756Z,5.27
2018-07-21T07:39:43.388Z,4.20
2018-07-21T07:42:11.893Z,4.80
2018-07-21T07:44:39.971Z,5.53
2018-07-21T07:47:07.584Z,5.07
2018-07-21T07:49:35.722Z,5.30
2018-07-21T07:52:04.474Z,4.70
2018-07-21T07:54:32.002Z,4.80
2018-07-21T07:56:59.540Z,5.40
2018-07-21T07:59:26.953Z,4.83
2018-07-21T08:01:54.522Z,4.83
2018-07-21T08:04:22.244Z,4.70
2018-07-21T08:06:49.789Z,5.30
2018-07-21T08:09:17.250Z,4.67
2018-07-21T08:11:45.512Z,5.40
2018-07-21T08:14:12.941Z,6.00
2018-07-21T08:16:41.493Z,5.70
2018-07-21T08:19:09.748Z,5.00
2018-07-21T08:21:37.439Z,6.57
2018-07-21T08:24:04.877Z,5.43
2018-07-21T08:26:35.958Z,5.30
2018-07-21T08:29:03.746Z,5.70
2018-07-21T08:31:32.567Z,5.37
2018-07-21T08:34:00.935Z,5.27
2018-07-21T08:36:28.528Z,6.43
2018-07-21T08:38:56.257Z,5.70
2018-07-21T08:41:23.910Z,5.27
2018-07-21T08:43:51.660Z,5.47
2018-07-21T08:46:19.501Z,5.70
2018-07-21T08:48:47.147Z,5.37
2018-07-21T08:51:14.981Z,7.53
2018-07-21T08:53:43.226Z,7.07
2018-07-21T08:56:11.622Z,5.60
2018-07-21T08:58:41.459Z,6.00
2018-07-21T09:01:09.617Z,5.37
2018-07-21T09:03:37.256Z,5.10
2018-07-21T09:06:05.037Z,7.60
2018-07-21T09:08:32.724Z,6.43
2018-07-21T09:11:00.408Z,6.03
2018-07-21T09:13:29.140Z,5.90
2018-07-21T09:15:57.370Z,5.80
2018-07-21T09:18:25.318Z,6.43
2018-07-21T09:20:53.290Z,6.87
2018-07-21T09:23:21.148Z,6.97
2018-07-21T09:25:49.394Z,6.13
2018-07-21T09:28:16.965Z,6.13
2018-07-21T09:30:45.698Z,7.80
2018-07-21T09:33:14.802Z,7.10
2018-07-21T09:35:42.386Z,6.00
2018-07-21T09:38:10.043Z,7.40
2018-07-21T09:40:37.650Z,7.47
2018-07-21T09:43:06.413Z,7.40
2018-07-21T09:45:34.106Z,6.30
2018-07-21T09:48:01.969Z,7.43
2018-07-21T09:50:35.816Z,8.17
2018-07-21T09:53:03.370Z,7.13
2018-07-21T09:55:31.032Z,7.90
2018-07-21T09:58:00.401Z,7.33
2018-07-21T10:00:37.777Z,7.87
2018-07-21T10:03:05.207Z,8.53
2018-07-21T10:05:32.961Z,8.70
2018-07-21T10:08:01.387Z,9.17
2018-07-21T10:10:29.524Z,8.37
2018-07-21T10:13:00.278Z,8.70
2018-07-21T10:15:27.926Z,8.90
2018-07-21T10:17:56.838Z,8.80
2018-07-21T10:20:24.423Z,9.43
2018-07-21T10:22:54.137Z,10.60
2018-07-21T10:25:27.526Z,9.23
2018-07-21T10:28:04.089Z,9.63
2018-07-21T10:30:31.536Z,10.53
2018-07-21T10:33:01.420Z,13.00
2018-07-21T10:35:30.840Z,11.20
2018-07-21T10:38:03.237Z,9.60
2018-07-21T10:40:32.530Z,11.27
2018-07-21T10:43:02.100Z,12.80
2018-07-21T10:45:30.818Z,11.87
2018-07-21T10:48:00.431Z,11.83
2018-07-21T10:50:28.942Z,12.00
2018-07-21T10:52:57.317Z,11.43
2018-07-21T10:55:25.083Z,10.33
2018-07-21T10:57:55.293Z,10.90
2018-07-21T11:00:23.036Z,11.00
2018-07-21T11:02:51.249Z,11.83
2018-07-21T11:05:19.357Z,12.50
2018-07-21T11:07:47.246Z,13.00
2018-07-21T11:10:15.077Z,14.00
2018-07-21T11:12:42.633Z,12.20
2018-07-21T11:15:10.623Z,13.03
2018-07-21T11:17:38.422Z,13.23
2018-07-21T11:20:06.842Z,11.20
2018-07-21T11:22:36.675Z,13.27
2018-07-21T11:25:07.677Z,13.33
2018-07-21T11:27:36.138Z,12.53
2018-07-21T11:30:04.727Z,13.60
2018-07-21T11:32:32.382Z,13.50
2018-07-21T11:34:59.889Z,13.20
2018-07-21T11:37:27.540Z,14.17
2018-07-21T11:39:55.120Z,13.57
2018-07-21T11:42:23.337Z,11.67
2018-07-21T11:44:51.784Z,14.10
2018-07-21T11:47:19.873Z,13.70
2018-07-21T11:49:47.582Z,13.10
2018-07-21T11:52:15.158Z,14.23
2018-07-21T11:54:59.574Z,13.60
2018-07-21T11:57:43.001Z,15.20
2018-07-21T12:00:10.564Z,13.27
2018-07-21T12:02:38.317Z,15.43
2018-07-21T12:05:06.008Z,17.23
2018-07-21T12:07:36.768Z,17.70
2018-07-21T12:10:04.999Z,19.27
2018-07-21T12:12:34.979Z,18.27
2018-07-21T12:15:14.566Z,19.23
2018-07-21T12:17:42.925Z,19.33
2018-07-21T12:20:10.727Z,20.03
2018-07-21T12:22:40.403Z,18.63
2018-07-21T12:25:13.893Z,21.13
2018-07-21T12:30:27.556Z,19.27
2018-07-21T12:32:55.873Z,18.80
2018-07-21T12:35:32.828Z,20.90
2018-07-21T12:38:03.450Z,23.20
2018-07-21T12:40:31.902Z,21.80
2018-07-21T12:42:59.688Z,19.67
2018-07-21T12:45:27.429Z,21.10
2018-07-21T12:47:55.013Z,22.07
2018-07-21T12:50:23.288Z,22.10
2018-07-21T12:52:51.487Z,22.33
2018-07-21T12:55:19.846Z,23.50
2018-07-21T12:57:47.467Z,24.33
2018-07-21T13:00:15.056Z,22.37
2018-07-21T13:02:42.918Z,22.57
2018-07-21T13:05:10.410Z,20.60
2018-07-21T13:07:38.744Z,20.07
2018-07-21T13:10:13.893Z,20.73
2018-07-21T13:12:41.487Z,21.43
2018-07-21T13:15:09.317Z,19.90
2018-07-21T13:17:36.971Z,20.63
2018-07-21T13:20:05.916Z,21.17
2018-07-21T13:22:33.498Z,19.90
2018-07-21T13:25:00.934Z,21.90
2018-07-21T13:27:28.640Z,21.77
2018-07-21T13:29:56.317Z,19.67
2018-07-21T13:32:24.284Z,19.17
2018-07-21T13:34:52.790Z,20.17
2018-07-21T13:37:20.428Z,18.80
2018-07-21T13:39:48.067Z,19.50
2018-07-21T13:42:16.387Z,18.50
2018-07-21T13:44:44.888Z,21.60
2018-07-21T13:47:13.256Z,25.50
2018-07-21T13:49:40.874Z,21.60
2018-07-21T13:52:08.544Z,20.00
2018-07-21T13:54:47.400Z,20.97
2018-07-21T13:57:21.835Z,25.20
2018-07-21T13:59:53.960Z,21.30
2018-07-21T14:02:21.550Z,21.70
2018-07-21T14:04:50.114Z,23.37
2018-07-21T14:07:18.777Z,23.50
2018-07-21T14:09:54.472Z,22.37
2018-07-21T14:12:22.435Z,21.63
2018-07-21T14:14:49.892Z,19.40
2018-07-21T14:17:17.444Z,26.00
2018-07-21T14:19:45.149Z,21.23
2018-07-21T14:22:12.684Z,18.37
2018-07-21T14:24:40.907Z,22.13
2018-07-21T14:36:58.766Z,19.90
2018-07-21T14:39:26.968Z,19.80
2018-07-21T14:41:54.937Z,19.67
2018-07-21T14:44:23.770Z,16.20
2018-07-21T14:46:53.337Z,16.30
2018-07-21T14:49:24.802Z,19.20
2018-07-21T14:51:52.565Z,17.20
2018-07-21T14:54:21.012Z,19.03
2018-07-21T14:56:48.752Z,18.27
2018-07-21T14:59:16.288Z,18.73
2018-07-21T15:01:44.020Z,17.07
2018-07-21T15:04:11.629Z,15.33
2018-07-21T15:06:39.296Z,18.00
2018-07-21T15:09:09.804Z,15.70
2018-07-21T15:11:37.359Z,17.23
2018-07-21T15:14:05.060Z,20.00
2018-07-21T15:16:34.970Z,15.23
2018-07-21T15:19:05.604Z,18.53
2018-07-21T15:21:36.367Z,15.37
2018-07-21T15:24:08.276Z,14.87
2018-07-21T15:26:38.472Z,14.03
2018-07-21T15:29:07.177Z,15.63
2018-07-21T15:31:36.600Z,13.03
2018-07-21T15:34:05.968Z,13.03
2018-07-21T15:36:36.751Z,11.90
2018-07-21T15:39:09.796Z,12.43
2018-07-21T15:41:40.697Z,12.20
2018-07-21T15:44:10.645Z,14.33
2018-07-21T15:46:40.078Z,13.10
2018-07-21T15:49:11.632Z,14.67
2018-07-21T15:51:41.755Z,12.90
2018-07-21T15:54:12.684Z,15.60
2018-07-21T15:56:40.948Z,15.13
2018-07-21T15:59:09.514Z,14.00
2018-07-21T16:01:37.077Z,13.87
2018-07-21T16:04:04.742Z,16.10
2018-07-21T16:06:33.025Z,13.53
2018-07-21T16:09:00.845Z,13.37
2018-07-21T16:11:29.129Z,14.30
2018-07-21T16:13:56.747Z,13.53
2018-07-21T16:16:24.238Z,12.70
2018-07-21T16:18:51.909Z,11.77
2018-07-21T16:21:19.742Z,13.50
2018-07-21T16:23:47.276Z,12.60
2018-07-21T16:26:14.921Z,13.10
2018-07-21T16:28:43.195Z,13.20
2018-07-21T16:31:10.856Z,14.00
2018-07-21T16:33:38.571Z,14.50
2018-07-21T16:36:06.723Z,15.37
2018-07-21T16:38:34.933Z,15.63
2018-07-21T16:41:03.466Z,15.07
2018-07-21T16:43:31.288Z,16.20
2018-07-21T16:45:58.979Z,14.60
2018-07-21T16:48:26.547Z,15.67
2018-07-21T16:50:54.890Z,14.50
2018-07-21T16:53:23.214Z,13.60
2018-07-21T16:55:51.428Z,16.03
2018-07-21T16:58:18.962Z,14.67
2018-07-21T17:00:46.466Z,16.80
2018-07-21T17:03:14.631Z,15.20
2018-07-21T17:05:42.191Z,16.10
2018-07-21T17:08:09.844Z,15.70
2018-07-21T17:10:37.622Z,15.83
2018-07-21T17:13:05.712Z,16.40
2018-07-21T17:15:33.299Z,16.00
2018-07-21T17:18:00.754Z,17.67
2018-07-21T17:20:29.520Z,17.40
2018-07-21T17:22:57.107Z,16.40
2018-07-21T17:25:24.837Z,16.30
2018-07-21T17:27:52.898Z,16.23
2018-07-21T17:30:20.401Z,17.30
2018-07-21T17:32:48.435Z,14.57
2018-07-21T17:35:16.998Z,17.97
2018-07-21T17:37:44.680Z,16.63
2018-07-21T17:40:12.283Z,18.10
2018-07-21T17:42:39.938Z,16.80
2018-07-21T17:45:07.670Z,18.00
2018-07-21T17:47:35.253Z,17.67
2018-07-21T17:50:05.427Z,17.10
2018-07-21T17:52:34.842Z,15.60
2018-07-21T17:55:06.581Z,16.67
2018-07-21T17:57:34.347Z,14.53
2018-07-21T18:00:03.573Z,14.40
2018-07-21T18:02:32.138Z,16.83
2018-07-21T18:05:04.329Z,16.23
2018-07-21T18:07:32.078Z,16.77
2018-07-21T18:10:00.513Z,15.37
2018-07-21T18:12:28.405Z,16.30
2018-07-21T18:14:56.638Z,16.17
2018-07-21T18:17:24.281Z,13.57
2018-07-21T18:19:51.892Z,14.23
2018-07-21T18:22:19.585Z,15.50
2018-07-21T18:24:47.114Z,14.43
2018-07-21T18:27:15.121Z,14.37
2018-07-21T18:29:42.799Z,14.33
2018-07-21T18:32:10.850Z,16.10
2018-07-21T18:34:38.665Z,16.10
2018-07-21T18:37:06.269Z,12.73
2018-07-21T18:39:33.904Z,13.83
2018-07-21T18:42:02.248Z,13.70
2018-07-21T18:44:29.860Z,14.10
2018-07-21T18:46:58.194Z,12.63
2018-07-21T18:49:25.739Z,14.03
2018-07-21T18:51:53.384Z,13.27
2018-07-21T18:54:21.016Z,14.77
2018-07-21T18:56:49.829Z,15.43
2018-07-21T18:59:18.018Z,14.57
2018-07-21T19:01:45.728Z,14.93
2018-07-21T19:04:14.042Z,13.80
2018-07-21T19:06:41.758Z,15.13
2018-07-21T19:09:10.095Z,14.70
2018-07-21T19:11:37.689Z,14.40
2018-07-21T19:14:05.692Z,14.70
2018-07-21T19:16:40.689Z,13.27
2018-07-21T19:19:09.598Z,12.80
2018-07-21T19:21:37.753Z,14.60
2018-07-21T19:24:06.335Z,15.17
2018-07-21T19:26:39.766Z,13.27
2018-07-21T19:29:07.816Z,14.90
2018-07-21T19:31:36.700Z,14.57
2018-07-21T19:34:04.238Z,13.77
2018-07-21T19:36:32.285Z,13.03
2018-07-21T19:39:00.074Z,14.23
2018-07-21T19:41:34.341Z,13.07
2018-07-21T19:44:02.160Z,14.50
2018-07-21T19:46:30.170Z,13.70
2018-07-21T19:48:58.008Z,13.80
2018-07-21T19:51:26.318Z,14.67
2018-07-21T19:53:54.069Z,14.83
2018-07-21T19:56:21.709Z,14.37
2018-07-21T19:58:49.385Z,14.00
2018-07-21T20:01:17.115Z,15.60
2018-07-21T20:03:44.650Z,14.97
2018-07-21T20:06:12.333Z,14.53
2018-07-21T20:08:39.954Z,15.80
2018-07-21T20:11:07.786Z,13.83
2018-07-21T20:13:35.390Z,12.93
2018-07-21T20:16:03.575Z,16.40
2018-07-21T20:18:31.192Z,14.43
2018-07-21T20:20:58.900Z,16.30
2018-07-21T20:23:27.371Z,17.90
2018-07-21T20:25:54.891Z,18.37
2018-07-21T20:28:23.538Z,16.13
2018-07-21T20:30:52.264Z,15.40
2018-07-21T20:33:20.032Z,15.93
2018-07-21T20:35:48.518Z,17.23
2018-07-21T20:38:16.292Z,14.80
2018-07-21T20:40:44.994Z,15.30
2018-07-21T20:43:13.322Z,15.67
2018-07-21T20:45:41.185Z,16.97
2018-07-21T20:48:08.732Z,17.70
2018-07-21T20:50:36.412Z,16.90
2018-07-21T20:53:05.487Z,16.87
2018-07-21T20:55:32.977Z,17.13
2018-07-21T20:58:02.301Z,17.77
2018-07-21T21:00:31.113Z,16.20
2018-07-21T21:02:59.642Z,15.70
2018-07-21T21:05:27.286Z,16.70
2018-07-21T21:07:55.191Z,15.07
2018-07-21T21:10:23.024Z,17.17
2018-07-21T21:12:50.730Z,15.87
2018-07-21T21:15:18.329Z,14.97
2018-07-21T21:17:46.811Z,14.97
2018-07-21T21:20:14.611Z,15.00
2018-07-21T21:22:42.410Z,14.80
2018-07-21T21:25:10.921Z,12.93
2018-07-21T21:27:38.779Z,14.57
2018-07-21T21:30:06.406Z,14.90
2018-07-21T21:32:33.910Z,12.73
2018-07-21T21:35:01.506Z,13.03
2018-07-21T21:37:29.189Z,14.07
2018-07-21T21:39:56.736Z,13.33
2018-07-21T21:42:24.537Z,15.67
2018-07-21T21:44:52.561Z,14.80
2018-07-21T21:47:21.049Z,16.73
2018-07-21T21:49:48.601Z,15.13
2018-07-21T21:52:16.029Z,15.20
2018-07-21T21:54:44.334Z,16.37
2018-07-21T21:57:11.929Z,15.17
2018-07-21T21:59:39.436Z,15.77
2018-07-21T22:02:07.073Z,14.37
2018-07-21T22:04:35.080Z,13.87
2018-07-21T22:07:02.825Z,13.90
2018-07-21T22:09:30.633Z,16.00
2018-07-21T22:11:58.200Z,14.87
2018-07-21T22:14:25.910Z,14.43
2018-07-21T22:16:53.781Z,13.97
2018-07-21T22:19:22.146Z,13.47
2018-07-21T22:21:49.816Z,17.10
2018-07-21T22:24:17.303Z,15.57
2018-07-21T22:26:45.068Z,16.00
2018-07-21T22:29:12.633Z,15.80
2018-07-21T22:31:40.184Z,18.30
2018-07-21T22:34:07.661Z,15.90
2018-07-21T22:36:35.304Z,14.93
2018-07-21T22:39:03.568Z,12.60
2018-07-21T22:41:31.133Z,12.30
2018-07-21T22:43:58.696Z,13.07
2018-07-21T22:46:26.843Z,12.27
2018-07-21T22:48:54.433Z,13.17
2018-07-21T22:51:22.044Z,11.60
2018-07-21T22:53:49.577Z,11.10
2018-07-21T22:56:17.190Z,11.47
2018-07-21T22:58:44.871Z,9.90
2018-07-21T23:01:12.644Z,10.63
2018-07-21T23:03:40.673Z,11.93
2018-07-21T23:06:08.224Z,11.83
2018-07-21T23:08:35.838Z,12.93
2018-07-21T23:11:03.933Z,13.13
2018-07-21T23:13:31.356Z,13.53
2018-07-21T23:15:59.542Z,13.13
2018-07-21T23:18:27.772Z,12.97
2018-07-21T23:20:55.460Z,13.03
2018-07-21T23:23:23.160Z,15.30
2018-07-21T23:25:50.791Z,13.60
2018-07-21T23:28:19.150Z,12.93
2018-07-21T23:30:47.397Z,12.47
2018-07-21T23:33:15.132Z,13.87
2018-07-21T23:35:42.820Z,13.47
2018-07-21T23:38:10.416Z,13.47
2018-07-21T23:40:38.655Z,15.03
2018-07-21T23:43:06.268Z,13.80
2018-07-21T23:45:33.964Z,10.90
2018-07-21T23:48:01.494Z,9.83
2018-07-21T23:50:29.043Z,9.87
2018-07-21T23:52:56.496Z,9.60
2018-07-21T23:55:24.837Z,8.30
2018-07-21T23:57:53.006Z,9.27
